Terminal Aerodrome Forecast
Issued by NWS

Home | Current Version | Previous Version | Text Only | Print | Product List | Glossary On
Versions: 1 2 3 4 5 6 7 8 9 10 11 12 13 14 15 16 17 18 19
000
FTUS46 KOTX 202336
TAFMWH
TAF
KMWH 202336Z 2100/2124 25011KT P6SM SCT070
     FM210200 22010KT P6SM SCT200
     FM211400 16008KT P6SM -RA OVC050
     FM211800 14008KT 6SM -RA BR BKN015 OVC030=

USA.gov is the U.S. government's official web portal to all federal, state and local government web resources and services.